Time;durP1;ratioP1;P1;durP2;ratioP2;P2;SDS_P1;SDS_P2;PMS_P1;PMS_P2;Temp;Humidity;BMP_temperature;BMP_pressure;BME280_temperature;BME280_humidity;BME280_pressure;Samples;Min_cycle;Max_cycle;Signal;HPM_P1;HPM_P2
2022/02/20 00:00:51;;;;;;;13.50;3.35;;;8.40;78.90;;;;;;5019632;28;20030;-60
2022/02/20 00:03:19;;;;;;;15.13;3.85;;;8.40;79.00;;;;;;5019559;28;20030;-63
2022/02/20 00:05:45;;;;;;;13.73;3.65;;;8.40;78.80;;;;;;5018377;28;20433;-62
2022/02/20 00:08:11;;;;;;;13.45;3.22;;;8.40;78.80;;;;;;5018995;28;20038;-64
2022/02/20 00:10:36;;;;;;;13.43;3.22;;;8.40;78.70;;;;;;5021457;28;20034;-65
2022/02/20 00:13:03;;;;;;;11.48;3.33;;;8.40;78.70;;;;;;5019098;28;20030;-64
2022/02/20 00:15:29;;;;;;;9.27;3.08;;;8.30;78.60;;;;;;5018740;28;20489;-62
2022/02/20 00:17:55;;;;;;;13.40;3.55;;;8.40;78.70;;;;;;5020442;28;20072;-63
2022/02/20 00:20:21;;;;;;;7.47;2.95;;;8.40;78.60;;;;;;5004692;28;20168;-63
2022/02/20 00:22:47;;;;;;;10.88;3.00;;;8.40;78.60;;;;;;5021968;28;20068;-63
2022/02/20 00:25:12;;;;;;;14.13;3.28;;;8.30;78.60;;;;;;5022365;28;20048;-62
2022/02/20 00:27:38;;;;;;;13.80;3.58;;;8.30;78.40;;;;;;5020237;28;20032;-61
2022/02/20 00:30:04;;;;;;;10.32;2.90;;;8.40;78.40;;;;;;5017540;28;20096;-63
2022/02/20 00:32:30;;;;;;;10.93;3.00;;;8.40;78.50;;;;;;5019455;28;20025;-63
2022/02/20 00:34:55;;;;;;;12.27;3.08;;;8.30;78.60;;;;;;5021256;28;20495;-63
2022/02/20 00:37:21;;;;;;;10.90;2.80;;;8.30;78.60;;;;;;5021099;28;20651;-64
2022/02/20 00:39:46;;;;;;;11.68;2.85;;;8.30;79.20;;;;;;5021067;28;20072;-64
2022/02/20 00:42:12;;;;;;;9.57;2.50;;;8.30;78.50;;;;;;5019465;28;20083;-65
2022/02/20 00:44:37;;;;;;;10.20;2.97;;;8.30;78.40;;;;;;5019248;28;20108;-64
2022/02/20 00:47:03;;;;;;;13.52;3.45;;;8.30;78.40;;;;;;5002792;28;20042;-64
2022/02/20 00:49:28;;;;;;;9.98;3.40;;;8.30;78.20;;;;;;5021828;28;20042;-63
2022/02/20 00:51:54;;;;;;;9.50;2.90;;;8.30;78.20;;;;;;5021940;28;20036;-64
2022/02/20 00:54:19;;;;;;;7.47;3.08;;;8.30;78.10;;;;;;5019088;28;20473;-63
2022/02/20 00:56:45;;;;;;;9.05;2.50;;;8.30;78.00;;;;;;5021257;28;20438;-64
2022/02/20 00:59:10;;;;;;;14.60;3.08;;;8.20;77.90;;;;;;5019676;28;20094;-62
2022/02/20 01:01:36;;;;;;;7.65;2.72;;;8.20;78.20;;;;;;5022242;28;20038;-65
2022/02/20 01:04:01;;;;;;;10.07;2.50;;;8.20;78.10;;;;;;5023824;28;20036;-64
2022/02/20 01:06:27;;;;;;;6.90;2.70;;;8.30;78.10;;;;;;5023334;28;20037;-62
2022/02/20 01:08:53;;;;;;;9.65;2.65;;;8.20;78.20;;;;;;5024048;28;20029;-62
2022/02/20 01:11:18;;;;;;;7.93;2.40;;;8.20;77.90;;;;;;5022477;28;20502;-62
2022/02/20 01:13:45;;;;;;;8.68;2.83;;;8.20;77.70;;;;;;5022462;28;20124;-63
2022/02/20 01:16:10;;;;;;;6.80;2.72;;;8.20;77.80;;;;;;5022681;28;20079;-64
2022/02/20 01:18:36;;;;;;;10.75;2.55;;;8.20;77.90;;;;;;5024363;28;20088;-65
2022/02/20 01:21:01;;;;;;;8.82;2.70;;;8.20;78.00;;;;;;5021911;28;20053;-62
2022/02/20 01:23:27;;;;;;;7.80;2.30;;;8.10;77.90;;;;;;5021738;28;20563;-65
2022/02/20 01:25:53;;;;;;;7.82;2.60;;;8.20;77.80;;;;;;5024739;28;20401;-64
2022/02/20 01:28:18;;;;;;;6.53;2.40;;;8.20;77.90;;;;;;5022879;28;20053;-63
2022/02/20 01:30:44;;;;;;;7.57;2.28;;;8.20;77.70;;;;;;5023274;28;20072;-63
2022/02/20 01:33:09;;;;;;;5.75;2.00;;;8.20;77.70;;;;;;5021119;28;20382;-64
2022/02/20 01:35:35;;;;;;;6.97;2.05;;;8.10;77.60;;;;;;5021743;28;20100;-63
2022/02/20 01:38:00;;;;;;;5.90;2.45;;;8.10;77.60;;;;;;5021959;28;20037;-65
2022/02/20 01:40:30;;;;;;;6.53;2.28;;;8.10;77.80;;;;;;5020859;28;20060;-60
2022/02/20 01:42:58;;;;;;;7.30;2.38;;;8.10;77.90;;;;;;5023896;28;20038;-59
2022/02/20 01:45:24;;;;;;;7.15;2.30;;;8.10;78.00;;;;;;5006257;28;20024;-61
2022/02/20 01:47:49;;;;;;;10.85;2.80;;;8.10;78.00;;;;;;5021889;28;20025;-63
2022/02/20 01:50:16;;;;;;;5.68;2.03;;;8.10;78.00;;;;;;5005792;28;20076;-64
2022/02/20 01:52:42;;;;;;;5.93;1.80;;;8.10;77.90;;;;;;5020311;28;20106;-62
2022/02/20 01:55:08;;;;;;;6.75;2.20;;;8.10;77.90;;;;;;5025083;28;20135;-61
2022/02/20 01:57:38;;;;;;;5.82;2.20;;;8.10;77.70;;;;;;5022275;28;20026;-64
2022/02/20 02:00:07;;;;;;;8.35;2.30;;;8.10;77.70;;;;;;5021979;28;20036;-61
2022/02/20 02:02:32;;;;;;;4.70;2.08;;;8.10;77.80;;;;;;5018530;28;20025;-64
2022/02/20 02:04:58;;;;;;;6.43;2.38;;;8.00;77.80;;;;;;5005829;28;20744;-64
2022/02/20 02:07:23;;;;;;;5.30;2.00;;;8.10;77.70;;;;;;5023009;28;20129;-61
2022/02/20 02:09:49;;;;;;;9.77;2.53;;;8.10;77.70;;;;;;5024481;28;20041;-63
2022/02/20 02:12:14;;;;;;;5.38;1.90;;;8.10;77.80;;;;;;5020405;28;20029;-62
2022/02/20 02:15:07;;;;;;;4.50;1.77;;;8.10;77.90;;;;;;5022194;28;20056;-62
2022/02/20 02:17:33;;;;;;;6.45;2.42;;;8.10;77.90;;;;;;5022478;28;20578;-64
2022/02/20 02:19:58;;;;;;;6.20;2.22;;;8.10;77.90;;;;;;5007166;28;20045;-62
2022/02/20 02:22:25;;;;;;;5.03;1.92;;;8.10;77.70;;;;;;5018918;28;20022;-63
2022/02/20 02:24:50;;;;;;;7.43;2.10;;;8.10;77.50;;;;;;5021975;28;20037;-64
2022/02/20 02:27:16;;;;;;;6.30;2.63;;;8.00;77.20;;;;;;5022376;28;20405;-63
2022/02/20 02:29:42;;;;;;;4.97;1.60;;;8.00;77.30;;;;;;5021161;28;20258;-63
2022/02/20 02:32:08;;;;;;;4.93;2.00;;;8.10;77.50;;;;;;5018943;28;20056;-65
2022/02/20 02:34:33;;;;;;;6.47;2.00;;;8.00;77.40;;;;;;5022767;28;20393;-63
2022/02/20 02:36:59;;;;;;;6.38;2.15;;;8.00;77.30;;;;;;5021947;28;20057;-62
2022/02/20 02:39:24;;;;;;;7.68;2.33;;;8.00;77.50;;;;;;5023225;28;20033;-63
2022/02/20 02:41:50;;;;;;;5.32;2.15;;;8.00;77.60;;;;;;5021021;28;20490;-62
2022/02/20 02:44:16;;;;;;;5.88;1.95;;;8.00;77.40;;;;;;5022990;28;20030;-62
2022/02/20 02:46:41;;;;;;;4.35;1.80;;;8.10;77.40;;;;;;5019911;28;20124;-63
2022/02/20 02:49:07;;;;;;;5.05;1.98;;;8.00;78.00;;;;;;5005841;28;20027;-64
2022/02/20 02:51:32;;;;;;;3.95;1.98;;;8.00;77.50;;;;;;5021849;28;20033;-64
2022/02/20 02:53:58;;;;;;;6.90;2.03;;;8.00;77.30;;;;;;5021709;28;20469;-64
2022/02/20 02:56:23;;;;;;;4.65;1.98;;;8.00;77.20;;;;;;5021220;28;20044;-65
2022/02/20 02:58:49;;;;;;;4.55;1.90;;;8.00;77.30;;;;;;5022906;28;20072;-62
2022/02/20 03:01:15;;;;;;;6.63;2.10;;;8.00;77.50;;;;;;5020272;28;20025;-61
2022/02/20 03:03:40;;;;;;;4.13;1.90;;;8.00;77.60;;;;;;5022086;28;20156;-63
2022/02/20 03:06:10;;;;;;;5.18;1.98;;;8.00;77.40;;;;;;5019457;28;20043;-64
2022/02/20 03:08:35;;;;;;;5.28;1.70;;;8.00;77.50;;;;;;5019835;28;20025;-62
2022/02/20 03:11:03;;;;;;;4.45;1.73;;;8.00;77.50;;;;;;5018773;28;20539;-65
2022/02/20 03:13:29;;;;;;;4.55;1.63;;;8.00;77.60;;;;;;5021275;28;20096;-63
2022/02/20 03:15:55;;;;;;;8.93;2.38;;;8.00;77.50;;;;;;5021864;28;20033;-62
2022/02/20 03:18:20;;;;;;;4.45;2.03;;;8.00;77.50;;;;;;5020775;28;20158;-63
2022/02/20 03:20:46;;;;;;;5.03;2.03;;;8.00;77.50;;;;;;5020608;28;20104;-64
2022/02/20 03:23:11;;;;;;;4.55;1.67;;;8.00;77.60;;;;;;5020870;28;20484;-64
2022/02/20 03:25:37;;;;;;;6.72;1.80;;;8.00;77.50;;;;;;5019787;28;20057;-62
2022/02/20 03:28:02;;;;;;;5.60;1.95;;;8.00;77.60;;;;;;5023003;28;20041;-61
2022/02/20 03:30:28;;;;;;;4.15;1.60;;;8.00;77.60;;;;;;5020869;28;20053;-62
2022/02/20 03:32:53;;;;;;;5.10;1.77;;;8.00;77.70;;;;;;5021452;28;20061;-61
2022/02/20 03:35:19;;;;;;;6.70;2.10;;;8.00;77.80;;;;;;5019821;28;20482;-62
2022/02/20 03:37:44;;;;;;;5.82;1.67;;;8.00;77.80;;;;;;5021222;28;20548;-63
2022/02/20 03:40:11;;;;;;;5.00;1.77;;;8.00;77.70;;;;;;5023458;28;20025;-62
2022/02/20 03:42:36;;;;;;;5.57;1.83;;;8.00;77.70;;;;;;5020964;28;20103;-61
2022/02/20 03:45:02;;;;;;;5.07;1.80;;;8.00;77.70;;;;;;5021163;28;20104;-64
2022/02/20 03:47:27;;;;;;;3.50;1.50;;;8.00;77.70;;;;;;5019868;28;20044;-61
2022/02/20 03:49:53;;;;;;;7.88;1.95;;;8.00;77.90;;;;;;5017794;28;20059;-61
2022/02/20 03:52:18;;;;;;;5.38;1.67;;;8.00;77.90;;;;;;5020078;28;20025;-64
2022/02/20 03:54:45;;;;;;;5.18;1.60;;;8.00;78.00;;;;;;5020674;28;20041;-61
2022/02/20 03:57:10;;;;;;;4.25;1.70;;;7.90;77.90;;;;;;5019817;28;20381;-63
2022/02/20 03:59:36;;;;;;;3.90;1.50;;;8.00;78.10;;;;;;5018190;28;20029;-62
2022/02/20 04:02:02;;;;;;;4.72;1.60;;;8.00;78.10;;;;;;5019798;28;20024;-65
2022/02/20 04:04:27;;;;;;;3.63;1.35;;;8.00;78.10;;;;;;5019861;28;20041;-63
2022/02/20 04:06:53;;;;;;;3.85;1.73;;;8.00;78.20;;;;;;5020512;28;20025;-61
2022/02/20 04:09:18;;;;;;;4.22;1.45;;;7.90;78.10;;;;;;5004735;28;20477;-61
2022/02/20 04:11:44;;;;;;;4.50;1.52;;;7.90;78.20;;;;;;5021232;28;20037;-64
2022/02/20 04:14:09;;;;;;;5.55;2.08;;;7.90;78.20;;;;;;5021294;28;20044;-62
2022/02/20 04:16:35;;;;;;;5.25;1.50;;;7.90;78.30;;;;;;5019641;28;20474;-63
2022/02/20 04:19:00;;;;;;;3.88;1.58;;;7.90;78.40;;;;;;5021402;28;20060;-62
2022/02/20 04:21:26;;;;;;;5.90;1.70;;;7.90;78.40;;;;;;5020947;28;20500;-64
2022/02/20 04:23:53;;;;;;;2.75;1.40;;;7.90;78.50;;;;;;5003431;28;20033;-61
2022/02/20 04:26:18;;;;;;;5.50;1.50;;;7.90;78.40;;;;;;5020996;28;20025;-63
2022/02/20 04:28:44;;;;;;;3.33;1.60;;;7.90;79.00;;;;;;5019777;28;20045;-62
2022/02/20 04:31:10;;;;;;;5.50;1.92;;;7.90;78.40;;;;;;5021358;28;20067;-62
2022/02/20 04:33:36;;;;;;;3.70;1.35;;;7.90;78.50;;;;;;5024818;28;20026;-64
2022/02/20 04:36:02;;;;;;;5.20;1.85;;;7.90;78.60;;;;;;5023998;28;20500;-63
2022/02/20 04:38:27;;;;;;;3.72;1.77;;;7.90;78.70;;;;;;5023617;28;20500;-63
2022/02/20 04:40:53;;;;;;;5.20;1.63;;;7.80;78.60;;;;;;5022434;28;20041;-63
2022/02/20 04:43:19;;;;;;;4.63;1.73;;;7.90;78.80;;;;;;5024568;28;20125;-63
2022/02/20 04:45:44;;;;;;;3.45;1.40;;;7.90;78.80;;;;;;5025591;28;20025;-64
2022/02/20 04:48:10;;;;;;;4.15;1.58;;;7.80;78.60;;;;;;5022993;28;20503;-62
2022/02/20 04:50:36;;;;;;;5.25;1.58;;;7.90;78.70;;;;;;5023778;28;20492;-62
2022/02/20 04:53:01;;;;;;;2.70;1.40;;;7.90;78.70;;;;;;5022047;28;20033;-64
2022/02/20 04:55:27;;;;;;;4.63;1.40;;;7.90;78.80;;;;;;5022527;28;20120;-62
2022/02/20 04:57:52;;;;;;;3.60;1.35;;;7.90;78.70;;;;;;5024739;28;20039;-62
2022/02/20 05:00:18;;;;;;;2.22;1.45;;;7.80;78.60;;;;;;5026201;28;20033;-62
2022/02/20 05:02:43;;;;;;;5.03;1.55;;;7.90;78.70;;;;;;5021439;28;20064;-62
2022/02/20 05:05:10;;;;;;;4.57;1.63;;;7.80;78.60;;;;;;5023726;28;20488;-64
2022/02/20 05:07:36;;;;;;;3.35;1.60;;;7.80;78.70;;;;;;5020576;28;20387;-64
2022/02/20 05:10:01;;;;;;;4.45;1.83;;;7.80;78.60;;;;;;5024788;28;20116;-64
2022/02/20 05:12:27;;;;;;;5.20;1.40;;;7.90;78.70;;;;;;5024675;28;20349;-61
2022/02/20 05:14:52;;;;;;;4.55;1.45;;;7.80;78.70;;;;;;5023613;28;20211;-61
2022/02/20 05:17:18;;;;;;;4.30;1.42;;;7.80;78.80;;;;;;5003886;28;20459;-64
2022/02/20 05:19:44;;;;;;;5.93;1.60;;;7.80;78.80;;;;;;5024244;28;20454;-64
2022/02/20 05:22:09;;;;;;;3.42;1.33;;;7.80;78.80;;;;;;5022540;28;20535;-62
2022/02/20 05:24:35;;;;;;;5.47;1.50;;;7.80;78.70;;;;;;5008901;28;20017;-61
2022/02/20 05:27:00;;;;;;;2.90;1.30;;;7.80;78.70;;;;;;5007607;28;20191;-63
2022/02/20 05:29:26;;;;;;;4.35;1.23;;;7.80;78.70;;;;;;5022956;28;20046;-61
2022/02/20 05:31:51;;;;;;;5.50;1.50;;;7.80;78.70;;;;;;5022163;28;20041;-62
2022/02/20 05:34:17;;;;;;;12.20;1.77;;;7.80;78.70;;;;;;5022983;28;20038;-65
2022/02/20 05:36:42;;;;;;;4.10;1.48;;;7.80;78.80;;;;;;5022172;28;20342;-62
2022/02/20 05:39:07;;;;;;;6.03;1.60;;;7.70;78.60;;;;;;5025648;28;20029;-63
2022/02/20 05:41:33;;;;;;;7.00;1.75;;;7.80;78.70;;;;;;5021975;28;20497;-64
2022/02/20 05:43:59;;;;;;;8.10;1.60;;;7.90;78.60;;;;;;5023269;28;20026;-61
2022/02/20 05:46:24;;;;;;;4.95;2.10;;;7.90;78.60;;;;;;5023184;28;20021;-61
2022/02/20 05:48:50;;;;;;;7.18;2.10;;;7.80;78.50;;;;;;5023232;28;20041;-64
2022/02/20 05:51:15;;;;;;;4.45;2.05;;;7.80;78.60;;;;;;5006998;28;20025;-64
2022/02/20 05:53:41;;;;;;;6.05;2.38;;;7.80;78.60;;;;;;5023580;28;20355;-63
2022/02/20 05:56:06;;;;;;;5.07;3.00;;;7.80;78.60;;;;;;5021853;28;20034;-63
2022/02/20 05:58:32;;;;;;;6.70;2.58;;;7.80;78.50;;;;;;5022144;28;20021;-64
2022/02/20 06:00:58;;;;;;;7.35;2.47;;;7.90;78.60;;;;;;5020108;28;20034;-62
2022/02/20 06:03:23;;;;;;;5.78;2.08;;;7.90;78.50;;;;;;5025066;28;20378;-61
2022/02/20 06:05:49;;;;;;;6.75;2.28;;;7.90;78.50;;;;;;5023060;28;20033;-61
2022/02/20 06:08:14;;;;;;;5.80;1.98;;;7.80;78.50;;;;;;5018597;28;20045;-62
2022/02/20 06:10:40;;;;;;;4.13;1.98;;;7.80;78.40;;;;;;5018056;28;20029;-62
2022/02/20 06:13:07;;;;;;;4.82;1.80;;;7.80;78.50;;;;;;5022218;28;20333;-64
2022/02/20 06:15:32;;;;;;;5.65;2.30;;;7.80;78.40;;;;;;5022652;28;20473;-63
2022/02/20 06:17:58;;;;;;;5.88;2.20;;;7.90;78.50;;;;;;5025144;28;20091;-63
2022/02/20 06:20:23;;;;;;;6.53;1.70;;;8.10;78.70;;;;;;5021833;28;20029;-63
2022/02/20 06:22:49;;;;;;;6.05;2.17;;;7.90;78.70;;;;;;5022850;28;20385;-64
2022/02/20 06:25:14;;;;;;;7.55;2.00;;;7.90;78.80;;;;;;5021415;28;20125;-60
2022/02/20 06:27:40;;;;;;;5.57;2.20;;;7.90;78.80;;;;;;5022751;28;20376;-60
2022/02/20 06:30:06;;;;;;;6.45;1.98;;;7.90;78.80;;;;;;5024004;28;20091;-61
2022/02/20 06:32:32;;;;;;;15.95;2.78;;;7.90;78.80;;;;;;5022117;28;20475;-62
2022/02/20 06:34:57;;;;;;;17.42;2.80;;;7.90;78.70;;;;;;5022719;28;20017;-63
2022/02/20 06:37:22;;;;;;;14.32;2.92;;;7.90;78.80;;;;;;5021051;28;20113;-63
2022/02/20 06:39:48;;;;;;;12.90;2.58;;;7.90;78.80;;;;;;5020386;28;20512;-63
2022/02/20 06:42:14;;;;;;;12.32;2.72;;;7.90;78.70;;;;;;5021839;28;20095;-63
2022/02/20 06:44:40;;;;;;;14.82;2.92;;;7.90;78.80;;;;;;5022906;28;20029;-62
2022/02/20 06:47:05;;;;;;;18.48;2.00;;;7.90;78.90;;;;;;5020902;28;20028;-63
2022/02/20 06:49:31;;;;;;;13.25;2.97;;;7.90;79.00;;;;;;5021089;28;20037;-62
2022/02/20 06:51:57;;;;;;;9.25;2.70;;;7.90;79.00;;;;;;5021531;28;20030;-63
2022/02/20 06:54:22;;;;;;;15.45;3.05;;;7.90;79.00;;;;;;5020634;28;20084;-61
2022/02/20 06:56:48;;;;;;;9.93;2.42;;;7.90;79.10;;;;;;5023778;28;20060;-63
2022/02/20 06:59:13;;;;;;;11.07;2.65;;;7.90;79.10;;;;;;5020239;28;20025;-63
2022/02/20 07:01:39;;;;;;;9.00;2.13;;;8.00;79.20;;;;;;5022120;28;20033;-64
2022/02/20 07:04:05;;;;;;;18.25;2.58;;;7.90;79.10;;;;;;5021362;28;20056;-62
2022/02/20 07:06:31;;;;;;;12.10;2.90;;;8.00;79.30;;;;;;5020006;28;20038;-62
2022/02/20 07:08:57;;;;;;;8.30;1.83;;;8.00;79.40;;;;;;5023430;28;20030;-63
2022/02/20 07:11:22;;;;;;;9.00;2.20;;;8.00;79.20;;;;;;5020912;28;20053;-60
2022/02/20 07:13:48;;;;;;;12.63;2.47;;;8.00;79.30;;;;;;5019516;28;20477;-62
2022/02/20 07:16:13;;;;;;;7.57;2.38;;;8.00;79.30;;;;;;5004496;28;20049;-64
2022/02/20 07:18:39;;;;;;;68.50;5.18;;;8.00;79.30;;;;;;5020627;28;20103;-63
2022/02/20 07:21:04;;;;;;;46.22;5.00;;;8.00;79.30;;;;;;5021655;28;20115;-63
2022/02/20 07:23:30;;;;;;;97.75;8.73;;;8.00;79.30;;;;;;5021752;28;20516;-61
2022/02/20 07:25:55;;;;;;;140.20;13.02;;;8.00;79.40;;;;;;5020941;28;20116;-64
2022/02/20 07:28:22;;;;;;;156.82;14.70;;;8.00;79.40;;;;;;5021727;28;20036;-64
2022/02/20 07:30:47;;;;;;;149.30;14.65;;;8.00;79.30;;;;;;5021008;28;21011;-64
2022/02/20 07:33:14;;;;;;;152.43;12.20;;;8.00;79.30;;;;;;5021126;28;20117;-61
2022/02/20 07:35:40;;;;;;;110.40;10.80;;;8.00;79.20;;;;;;5022908;28;20034;-62
2022/02/20 07:38:06;;;;;;;83.85;7.93;;;8.00;79.20;;;;;;5020587;28;20483;-61
2022/02/20 07:40:31;;;;;;;72.65;7.75;;;8.00;79.30;;;;;;5003898;28;20037;-62
2022/02/20 07:42:57;;;;;;;74.28;6.80;;;8.00;79.30;;;;;;5020337;28;20059;-64
2022/02/20 07:45:23;;;;;;;67.68;6.80;;;8.00;79.30;;;;;;5019266;28;20193;-63
2022/02/20 07:47:56;;;;;;;49.50;5.78;;;8.00;79.30;;;;;;5021401;28;20469;-64
2022/02/20 07:50:28;;;;;;;53.83;7.30;;;8.10;79.40;;;;;;5023149;28;20052;-63
2022/02/20 07:52:54;;;;;;;60.67;6.18;;;8.10;79.40;;;;;;5021614;28;20044;-62
2022/02/20 07:55:20;;;;;;;54.90;5.45;;;8.10;79.40;;;;;;5003966;28;20030;-61
2022/02/20 07:57:46;;;;;;;55.33;6.07;;;8.10;79.40;;;;;;5019065;28;20211;-64
2022/02/20 08:00:12;;;;;;;69.72;6.90;;;8.10;79.40;;;;;;5021065;28;20025;-62
2022/02/20 08:02:39;;;;;;;80.30;7.88;;;8.20;79.20;;;;;;5021747;28;20037;-62
2022/02/20 08:05:05;;;;;;;38.78;4.70;;;8.20;79.10;;;;;;5021635;28;20517;-62
2022/02/20 08:07:31;;;;;;;61.17;6.97;;;8.20;79.10;;;;;;5020502;28;20429;-64
2022/02/20 08:09:56;;;;;;;53.22;5.75;;;8.20;79.10;;;;;;5021607;28;20048;-62
2022/02/20 08:12:22;;;;;;;58.63;8.43;;;8.20;79.00;;;;;;5025178;28;20052;-64
2022/02/20 08:14:48;;;;;;;53.83;5.07;;;8.20;79.00;;;;;;5027752;28;20068;-61
2022/02/20 08:17:13;;;;;;;45.65;6.03;;;8.30;78.90;;;;;;5022584;28;20053;-64
2022/02/20 08:19:39;;;;;;;44.60;5.38;;;8.30;78.70;;;;;;5023444;28;20092;-63
2022/02/20 08:22:04;;;;;;;50.35;5.90;;;8.30;78.80;;;;;;5024571;28;20095;-62
2022/02/20 08:24:30;;;;;;;32.45;4.68;;;8.30;78.80;;;;;;5025158;28;20053;-63
2022/02/20 08:26:55;;;;;;;35.53;4.97;;;8.40;78.90;;;;;;5022728;28;20041;-63
2022/02/20 08:29:21;;;;;;;38.95;4.07;;;8.40;79.10;;;;;;5024934;28;20087;-65
2022/02/20 08:31:49;;;;;;;21.55;3.83;;;8.40;79.10;;;;;;5020630;28;20210;-61
2022/02/20 08:34:15;;;;;;;24.88;3.78;;;8.50;79.00;;;;;;5021714;28;20432;-62
2022/02/20 08:36:41;;;;;;;20.25;3.45;;;8.40;79.00;;;;;;5023851;28;20038;-61
2022/02/20 08:39:07;;;;;;;16.88;2.88;;;8.40;78.90;;;;;;5021762;28;20265;-64
2022/02/20 08:41:32;;;;;;;18.05;3.45;;;8.40;79.00;;;;;;5025250;28;20574;-64
2022/02/20 08:43:58;;;;;;;30.50;3.22;;;8.50;79.10;;;;;;5024898;28;20088;-64
2022/02/20 08:46:23;;;;;;;30.42;3.45;;;8.80;79.20;;;;;;5020817;28;20132;-64
2022/02/20 08:48:49;;;;;;;23.52;3.28;;;8.50;79.00;;;;;;5023212;28;20069;-63
2022/02/20 08:51:16;;;;;;;18.40;3.38;;;8.50;79.00;;;;;;5020662;28;20124;-63
2022/02/20 08:53:42;;;;;;;22.13;2.95;;;8.50;79.00;;;;;;5024648;28;20025;-64
2022/02/20 08:56:08;;;;;;;24.10;3.20;;;8.60;79.00;;;;;;5007032;28;20087;-62
2022/02/20 08:58:33;;;;;;;9.63;2.58;;;8.60;79.00;;;;;;5024038;28;20033;-62
2022/02/20 09:01:00;;;;;;;15.63;2.40;;;8.40;78.90;;;;;;5020957;28;20132;-63
2022/02/20 09:03:26;;;;;;;12.00;2.13;;;8.60;79.20;;;;;;5024234;28;20052;-64
2022/02/20 09:05:51;;;;;;;16.05;2.42;;;8.60;79.20;;;;;;5026669;28;20022;-63
2022/02/20 09:08:17;;;;;;;10.77;2.08;;;8.70;79.10;;;;;;5024108;28;20037;-62
2022/02/20 09:10:43;;;;;;;16.63;2.22;;;8.70;79.10;;;;;;5023208;28;20102;-64
2022/02/20 09:13:08;;;;;;;28.83;3.35;;;8.70;79.60;;;;;;5014751;28;20033;-62
2022/02/20 09:15:34;;;;;;;32.92;3.13;;;8.80;79.10;;;;;;5002010;28;20116;-62
2022/02/20 09:18:01;;;;;;;21.83;3.22;;;8.80;79.20;;;;;;5020735;28;20116;-62
2022/02/20 09:20:27;;;;;;;21.52;2.78;;;8.90;79.20;;;;;;5018878;28;20477;-62
2022/02/20 09:22:54;;;;;;;19.33;3.17;;;8.90;79.30;;;;;;5021745;28;20037;-64
2022/02/20 09:25:19;;;;;;;22.38;3.05;;;8.90;79.60;;;;;;5021095;28;20025;-64
2022/02/20 09:27:45;;;;;;;19.00;2.92;;;8.90;79.80;;;;;;5017439;28;20022;-64
2022/02/20 09:30:10;;;;;;;24.38;3.55;;;8.90;80.00;;;;;;5017701;28;20079;-63
2022/02/20 09:32:36;;;;;;;20.25;3.35;;;9.00;79.60;;;;;;5023383;28;20040;-64
2022/02/20 09:35:02;;;;;;;26.05;2.90;;;9.00;79.80;;;;;;5002629;28;20041;-62
2022/02/20 09:37:28;;;;;;;29.02;3.83;;;9.10;79.90;;;;;;5017713;28;20423;-62
2022/02/20 09:39:53;;;;;;;33.58;4.55;;;9.10;79.90;;;;;;5017634;28;20044;-61
2022/02/20 09:42:19;;;;;;;28.73;5.00;;;9.10;79.70;;;;;;5018868;28;20493;-61
2022/02/20 09:44:44;;;;;;;31.65;3.88;;;9.20;79.60;;;;;;5019510;28;20037;-64
2022/02/20 09:47:11;;;;;;;30.95;5.93;;;9.20;79.70;;;;;;5019047;28;20037;-63
2022/02/20 09:49:36;;;;;;;43.83;4.47;;;9.20;79.90;;;;;;5021163;28;20025;-64
2022/02/20 09:52:03;;;;;;;40.38;4.93;;;9.30;80.00;;;;;;5001492;28;20026;-64
2022/02/20 09:54:29;;;;;;;57.70;6.82;;;9.30;79.80;;;;;;5016078;28;20022;-64
2022/02/20 09:56:54;;;;;;;59.28;8.73;;;9.30;79.70;;;;;;5019534;28;20833;-64
2022/02/20 09:59:20;;;;;;;78.75;9.00;;;9.40;79.50;;;;;;5019945;28;20034;-62
2022/02/20 10:02:03;;;;;;;38.13;5.95;;;9.50;79.70;;;;;;5020997;28;20045;-63
2022/02/20 10:04:47;;;;;;;90.50;11.15;;;9.50;79.60;;;;;;5023275;28;20176;-64
2022/02/20 10:07:26;;;;;;;45.45;7.03;;;9.60;79.90;;;;;;5015506;28;20025;-63
2022/02/20 10:09:52;;;;;;;66.63;8.75;;;9.70;79.60;;;;;;5019622;28;20091;-64
2022/02/20 10:12:19;;;;;;;105.53;10.07;;;9.80;80.00;;;;;;5022056;28;20037;-65
2022/02/20 10:14:44;;;;;;;345.70;36.35;;;9.80;80.00;;;;;;5021764;28;20030;-66
2022/02/20 10:17:14;;;;;;;122.80;13.30;;;9.90;79.90;;;;;;5020698;28;20025;-65
2022/02/20 10:20:01;;;;;;;242.13;25.00;;;10.00;79.80;;;;;;5020784;28;20025;-64
2022/02/20 10:22:30;;;;;;;139.02;14.38;;;10.00;79.60;;;;;;5019168;28;20041;-62
2022/02/20 10:25:09;;;;;;;142.18;16.08;;;10.00;79.60;;;;;;5018766;28;20033;-61
2022/02/20 10:27:36;;;;;;;155.68;17.02;;;10.20;79.80;;;;;;4999929;28;20337;-62
2022/02/20 10:30:08;;;;;;;113.78;12.93;;;10.20;79.60;;;;;;5018380;28;20111;-63
2022/02/20 10:32:33;;;;;;;107.45;13.15;;;10.20;79.60;;;;;;5019489;28;20473;-60
2022/02/20 10:35:19;;;;;;;166.00;17.65;;;10.30;79.90;;;;;;5018926;28;20036;-63
2022/02/20 10:37:45;;;;;;;116.13;14.68;;;10.30;80.40;;;;;;5018299;28;20204;-60
2022/02/20 10:40:30;;;;;;;124.72;14.63;;;10.30;80.00;;;;;;5020279;28;20615;-62
2022/02/20 10:42:59;;;;;;;105.95;13.13;;;10.40;79.90;;;;;;5002912;28;20025;-62
2022/02/20 10:45:32;;;;;;;107.32;13.20;;;10.40;79.60;;;;;;5021080;28;20025;-62
2022/02/20 10:47:58;;;;;;;197.50;19.65;;;10.40;80.10;;;;;;5019003;28;20029;-60
2022/02/20 10:50:25;;;;;;;181.50;21.08;;;10.40;79.80;;;;;;5021343;28;20103;-59
2022/02/20 10:53:19;;;;;;;197.25;20.33;;;10.50;79.80;;;;;;5023506;28;20128;-61
2022/02/20 10:55:47;;;;;;;163.60;18.23;;;10.50;80.00;;;;;;5022745;28;20100;-59
2022/02/20 10:58:23;;;;;;;193.88;20.30;;;10.70;80.40;;;;;;5019791;28;20438;-61
2022/02/20 11:00:53;;;;;;;169.57;18.85;;;10.60;80.10;;;;;;5021246;28;20041;-60
2022/02/20 11:03:20;;;;;;;140.50;14.88;;;10.70;79.90;;;;;;5019696;28;20039;-59
2022/02/20 11:05:46;;;;;;;154.95;18.55;;;10.70;79.20;;;;;;5006370;28;20150;-62
2022/02/20 11:08:12;;;;;;;170.82;17.67;;;10.80;79.10;;;;;;5024791;28;20084;-62
2022/02/20 11:10:38;;;;;;;278.77;28.67;;;10.80;79.40;;;;;;5020681;28;20125;-60
2022/02/20 11:13:04;;;;;;;201.95;22.55;;;10.80;79.00;;;;;;5003361;28;20036;-62
2022/02/20 11:15:30;;;;;;;287.50;36.40;;;10.90;78.70;;;;;;5020264;28;20021;-61
2022/02/20 11:17:57;;;;;;;224.10;26.52;;;10.90;78.70;;;;;;5023980;28;20025;-60
2022/02/20 11:20:23;;;;;;;171.23;19.10;;;10.90;79.10;;;;;;5004657;28;20017;-63
2022/02/20 11:22:51;;;;;;;125.72;16.05;;;11.00;79.30;;;;;;5003815;28;20040;-60
2022/02/20 11:25:16;;;;;;;138.00;16.35;;;11.00;79.50;;;;;;5005342;28;20049;-62
2022/02/20 11:27:42;;;;;;;178.10;17.95;;;11.00;79.30;;;;;;5005028;28;20064;-61
2022/02/20 11:30:08;;;;;;;137.85;16.50;;;11.00;79.10;;;;;;5017235;28;20160;-62
2022/02/20 11:32:40;;;;;;;171.10;18.30;;;11.00;79.10;;;;;;5024482;28;20696;-61
2022/02/20 11:35:15;;;;;;;141.20;16.65;;;11.00;79.10;;;;;;4989873;28;20461;-59
2022/02/20 11:37:54;;;;;;;177.98;17.15;;;11.00;79.00;;;;;;5018705;28;20060;-61
2022/02/20 11:40:20;;;;;;;179.60;20.70;;;11.10;79.20;;;;;;5022407;28;20041;-62
2022/02/20 11:43:13;;;;;;;166.20;19.98;;;11.10;79.60;;;;;;4987249;28;20667;-61
2022/02/20 11:46:02;;;;;;;154.15;15.93;;;11.10;79.00;;;;;;5021150;28;20164;-62
2022/02/20 11:48:27;;;;;;;138.07;14.45;;;11.20;78.30;;;;;;5018587;28;20063;-61
2022/02/20 11:50:53;;;;;;;124.88;14.50;;;11.20;78.30;;;;;;5020675;28;20057;-63
2022/02/20 11:53:26;;;;;;;214.77;22.48;;;11.30;78.10;;;;;;5014823;28;20057;-60
2022/02/20 11:56:01;;;;;;;146.07;16.38;;;11.30;77.90;;;;;;5003618;28;20104;-60
2022/02/20 11:58:26;;;;;;;104.60;13.32;;;11.30;78.10;;;;;;5019407;28;20033;-60
2022/02/20 12:00:55;;;;;;;152.23;15.90;;;11.40;78.10;;;;;;5020909;28;20159;-63
2022/02/20 12:03:22;;;;;;;253.60;26.45;;;11.50;78.20;;;;;;5022328;28;20040;-61
2022/02/20 12:06:18;;;;;;;155.05;17.58;;;11.50;78.40;;;;;;5003042;28;20056;-62
2022/02/20 12:08:45;;;;;;;131.13;16.60;;;11.60;78.50;;;;;;5016835;28;20033;-63
2022/02/20 12:11:32;;;;;;;104.85;11.70;;;11.60;78.40;;;;;;5023409;28;20103;-65
2022/02/20 12:14:19;;;;;;;134.95;15.40;;;11.60;77.90;;;;;;5014379;28;20385;-64
2022/02/20 12:16:50;;;;;;;109.38;11.80;;;11.60;78.00;;;;;;5001908;28;20040;-60
2022/02/20 12:19:32;;;;;;;167.30;16.90;;;11.70;77.90;;;;;;5019637;28;20037;-64
2022/02/20 12:22:21;;;;;;;168.77;15.77;;;11.70;78.40;;;;;;5020895;28;20424;-60
2022/02/20 12:24:48;;;;;;;130.52;15.73;;;11.80;78.10;;;;;;5005261;28;20040;-63
2022/02/20 12:27:24;;;;;;;175.23;18.83;;;11.80;78.20;;;;;;5002497;28;20040;-62
2022/02/20 12:29:52;;;;;;;107.28;13.73;;;11.90;78.10;;;;;;5018783;28;20114;-59
2022/02/20 12:32:20;;;;;;;103.00;13.38;;;11.90;77.90;;;;;;5001981;28;20033;-61
2022/02/20 12:35:08;;;;;;;216.77;21.05;;;12.00;77.70;;;;;;5023025;28;20086;-62
2022/02/20 12:37:42;;;;;;;142.70;15.43;;;12.00;77.50;;;;;;5020884;28;20103;-59
2022/02/20 12:40:21;;;;;;;117.70;12.60;;;12.00;77.70;;;;;;5021140;28;20026;-62
2022/02/20 12:42:55;;;;;;;92.63;9.68;;;12.00;77.30;;;;;;5019944;28;20135;-61
2022/02/20 12:45:30;;;;;;;129.63;13.25;;;12.00;77.20;;;;;;5019128;28;20041;-61